sensor_id;sensor_type;location;lat;lon;timestamp;pressure;altitude;pressure_sealevel;temperature;humidity
75886;BME280;64561;44.018;10.144;2023-04-06T00:00:50;101741.06;;;6.18;61.10
75886;BME280;64561;44.018;10.144;2023-04-06T00:03:17;101740.88;;;6.30;62.19
75886;BME280;64561;44.018;10.144;2023-04-06T00:05:44;101749.50;;;6.32;61.15
75886;BME280;64561;44.018;10.144;2023-04-06T00:08:11;101740.97;;;6.02;62.07
75886;BME280;64561;44.018;10.144;2023-04-06T00:10:38;101747.56;;;5.98;62.74
75886;BME280;64561;44.018;10.144;2023-04-06T00:13:06;101752.38;;;5.93;62.41
75886;BME280;64561;44.018;10.144;2023-04-06T00:15:34;101747.88;;;5.89;62.58
75886;BME280;64561;44.018;10.144;2023-04-06T00:18:01;101750.28;;;5.58;63.71
75886;BME280;64561;44.018;10.144;2023-04-06T00:20:28;101743.97;;;5.52;64.42
75886;BME280;64561;44.018;10.144;2023-04-06T00:22:55;101748.09;;;5.64;64.02
75886;BME280;64561;44.018;10.144;2023-04-06T00:25:22;101750.66;;;5.79;63.70
75886;BME280;64561;44.018;10.144;2023-04-06T00:27:49;101745.88;;;5.99;63.75
75886;BME280;64561;44.018;10.144;2023-04-06T00:30:16;101751.75;;;5.98;65.36
75886;BME280;64561;44.018;10.144;2023-04-06T00:32:42;101760.25;;;5.98;64.36
75886;BME280;64561;44.018;10.144;2023-04-06T00:35:09;101757.06;;;5.87;63.46
75886;BME280;64561;44.018;10.144;2023-04-06T00:37:37;101752.31;;;5.64;63.92
75886;BME280;64561;44.018;10.144;2023-04-06T00:40:04;101757.94;;;5.73;64.22
75886;BME280;64561;44.018;10.144;2023-04-06T00:42:31;101765.72;;;5.76;64.49
75886;BME280;64561;44.018;10.144;2023-04-06T00:45:00;101765.44;;;5.71;64.17
75886;BME280;64561;44.018;10.144;2023-04-06T00:47:27;101769.75;;;5.72;63.49
75886;BME280;64561;44.018;10.144;2023-04-06T00:49:54;101764.56;;;5.71;64.08
75886;BME280;64561;44.018;10.144;2023-04-06T00:52:22;101765.03;;;5.79;65.16
75886;BME280;64561;44.018;10.144;2023-04-06T00:54:49;101762.56;;;5.80;63.65
75886;BME280;64561;44.018;10.144;2023-04-06T00:57:19;101767.81;;;5.54;65.47
75886;BME280;64561;44.018;10.144;2023-04-06T00:59:53;101763.19;;;5.33;65.91
75886;BME280;64561;44.018;10.144;2023-04-06T01:02:20;101768.25;;;5.33;65.81
75886;BME280;64561;44.018;10.144;2023-04-06T01:04:52;101775.88;;;5.33;65.95
75886;BME280;64561;44.018;10.144;2023-04-06T01:07:27;101773.16;;;5.30;65.89
75886;BME280;64561;44.018;10.144;2023-04-06T01:10:08;101762.44;;;5.21;66.89
75886;BME280;64561;44.018;10.144;2023-04-06T01:12:36;101763.13;;;5.46;66.88
75886;BME280;64561;44.018;10.144;2023-04-06T01:15:12;101773.06;;;5.57;65.72
75886;BME280;64561;44.018;10.144;2023-04-06T01:17:42;101770.88;;;5.63;65.93
75886;BME280;64561;44.018;10.144;2023-04-06T01:20:13;101762.66;;;5.67;65.99
75886;BME280;64561;44.018;10.144;2023-04-06T01:22:40;101766.81;;;5.52;64.12
75886;BME280;64561;44.018;10.144;2023-04-06T01:25:08;101763.59;;;5.54;63.86
75886;BME280;64561;44.018;10.144;2023-04-06T01:27:41;101770.72;;;5.60;64.52
75886;BME280;64561;44.018;10.144;2023-04-06T01:30:25;101770.63;;;5.73;64.08
75886;BME280;64561;44.018;10.144;2023-04-06T01:32:57;101771.97;;;5.53;64.55
75886;BME280;64561;44.018;10.144;2023-04-06T01:35:52;101766.13;;;5.54;64.92
75886;BME280;64561;44.018;10.144;2023-04-06T01:38:19;101761.94;;;5.55;65.26
75886;BME280;64561;44.018;10.144;2023-04-06T01:40:47;101766.56;;;5.62;65.12
75886;BME280;64561;44.018;10.144;2023-04-06T01:43:17;101767.03;;;5.69;66.43
75886;BME280;64561;44.018;10.144;2023-04-06T01:46:16;101766.88;;;5.81;65.70
75886;BME280;64561;44.018;10.144;2023-04-06T01:48:44;101758.47;;;5.82;65.31
75886;BME280;64561;44.018;10.144;2023-04-06T01:51:23;101766.69;;;5.78;65.47
75886;BME280;64561;44.018;10.144;2023-04-06T01:53:56;101760.44;;;5.58;65.52
75886;BME280;64561;44.018;10.144;2023-04-06T01:56:31;101757.72;;;5.55;65.44
75886;BME280;64561;44.018;10.144;2023-04-06T01:59:07;101760.09;;;5.52;65.48
75886;BME280;64561;44.018;10.144;2023-04-06T02:01:39;101762.94;;;5.43;65.67
75886;BME280;64561;44.018;10.144;2023-04-06T02:04:06;101769.25;;;5.50;65.69
75886;BME280;64561;44.018;10.144;2023-04-06T02:06:33;101768.19;;;5.46;66.69
75886;BME280;64561;44.018;10.144;2023-04-06T02:09:01;101764.75;;;5.31;65.91
75886;BME280;64561;44.018;10.144;2023-04-06T02:11:28;101776.75;;;5.34;65.94
75886;BME280;64561;44.018;10.144;2023-04-06T02:13:55;101769.94;;;5.47;66.93
75886;BME280;64561;44.018;10.144;2023-04-06T02:16:27;101765.91;;;5.36;66.35
75886;BME280;64561;44.018;10.144;2023-04-06T02:18:54;101767.72;;;5.11;66.73
75886;BME280;64561;44.018;10.144;2023-04-06T02:21:21;101774.97;;;5.04;67.02
75886;BME280;64561;44.018;10.144;2023-04-06T02:23:48;101765.38;;;5.14;67.13
75886;BME280;64561;44.018;10.144;2023-04-06T02:26:16;101759.38;;;4.98;67.09
75886;BME280;64561;44.018;10.144;2023-04-06T02:28:43;101760.03;;;5.09;66.38
75886;BME280;64561;44.018;10.144;2023-04-06T02:31:10;101763.47;;;4.96;67.68
75886;BME280;64561;44.018;10.144;2023-04-06T02:33:38;101753.94;;;4.92;67.44
75886;BME280;64561;44.018;10.144;2023-04-06T02:36:05;101767.16;;;5.01;67.59
75886;BME280;64561;44.018;10.144;2023-04-06T02:38:33;101763.91;;;4.76;67.97
75886;BME280;64561;44.018;10.144;2023-04-06T02:41:01;101760.59;;;4.50;69.69
75886;BME280;64561;44.018;10.144;2023-04-06T02:43:29;101765.38;;;4.59;69.78
75886;BME280;64561;44.018;10.144;2023-04-06T02:46:13;101758.84;;;4.63;69.09
75886;BME280;64561;44.018;10.144;2023-04-06T02:48:40;101758.91;;;4.91;69.60
75886;BME280;64561;44.018;10.144;2023-04-06T02:51:07;101764.56;;;5.00;68.82
75886;BME280;64561;44.018;10.144;2023-04-06T02:53:35;101765.81;;;5.07;69.07
75886;BME280;64561;44.018;10.144;2023-04-06T02:56:02;101758.75;;;5.16;68.28
75886;BME280;64561;44.018;10.144;2023-04-06T02:58:43;101762.34;;;5.19;66.89
75886;BME280;64561;44.018;10.144;2023-04-06T03:01:10;101757.97;;;5.17;65.51
75886;BME280;64561;44.018;10.144;2023-04-06T03:03:39;101760.00;;;5.22;65.48
75886;BME280;64561;44.018;10.144;2023-04-06T03:06:12;101751.69;;;5.25;64.46
75886;BME280;64561;44.018;10.144;2023-04-06T03:08:39;101762.28;;;5.04;65.59
75886;BME280;64561;44.018;10.144;2023-04-06T03:11:06;101758.09;;;5.05;65.72
75886;BME280;64561;44.018;10.144;2023-04-06T03:13:37;101756.38;;;4.77;65.79
75886;BME280;64561;44.018;10.144;2023-04-06T03:16:07;101761.38;;;4.63;66.33
75886;BME280;64561;44.018;10.144;2023-04-06T03:18:34;101762.66;;;4.43;66.54
75886;BME280;64561;44.018;10.144;2023-04-06T03:21:01;101757.69;;;4.31;66.88
75886;BME280;64561;44.018;10.144;2023-04-06T03:23:44;101751.63;;;4.29;67.19
75886;BME280;64561;44.018;10.144;2023-04-06T03:26:11;101763.13;;;4.50;68.90
75886;BME280;64561;44.018;10.144;2023-04-06T03:28:38;101767.13;;;4.73;68.00
75886;BME280;64561;44.018;10.144;2023-04-06T03:31:06;101769.94;;;4.78;68.13
75886;BME280;64561;44.018;10.144;2023-04-06T03:33:44;101766.63;;;4.79;67.75
75886;BME280;64561;44.018;10.144;2023-04-06T03:36:22;101770.94;;;4.53;68.31
75886;BME280;64561;44.018;10.144;2023-04-06T03:38:48;101773.09;;;4.61;68.07
75886;BME280;64561;44.018;10.144;2023-04-06T03:41:15;101776.66;;;4.77;68.43
75886;BME280;64561;44.018;10.144;2023-04-06T03:43:50;101775.63;;;4.61;68.18
75886;BME280;64561;44.018;10.144;2023-04-06T03:46:17;101781.38;;;4.58;67.70
75886;BME280;64561;44.018;10.144;2023-04-06T03:48:45;101785.34;;;4.41;68.82
75886;BME280;64561;44.018;10.144;2023-04-06T03:51:12;101785.47;;;4.43;68.89
75886;BME280;64561;44.018;10.144;2023-04-06T03:53:40;101781.34;;;4.31;69.07
75886;BME280;64561;44.018;10.144;2023-04-06T03:56:07;101787.41;;;4.33;69.97
75886;BME280;64561;44.018;10.144;2023-04-06T03:58:34;101783.59;;;4.40;69.27
75886;BME280;64561;44.018;10.144;2023-04-06T04:01:01;101784.41;;;4.52;70.14
75886;BME280;64561;44.018;10.144;2023-04-06T04:03:28;101793.75;;;4.67;68.62
75886;BME280;64561;44.018;10.144;2023-04-06T04:05:55;101790.50;;;4.69;68.83
75886;BME280;64561;44.018;10.144;2023-04-06T04:08:24;101782.22;;;4.85;69.09
75886;BME280;64561;44.018;10.144;2023-04-06T04:10:51;101794.00;;;4.98;68.96
75886;BME280;64561;44.018;10.144;2023-04-06T04:13:19;101792.16;;;4.95;68.04
75886;BME280;64561;44.018;10.144;2023-04-06T04:15:48;101793.66;;;4.78;68.31
75886;BME280;64561;44.018;10.144;2023-04-06T04:18:15;101793.84;;;4.55;68.45
75886;BME280;64561;44.018;10.144;2023-04-06T04:20:42;101797.84;;;4.51;68.54
75886;BME280;64561;44.018;10.144;2023-04-06T04:23:11;101782.72;;;4.66;69.48
75886;BME280;64561;44.018;10.144;2023-04-06T04:25:38;101790.50;;;4.69;67.23
75886;BME280;64561;44.018;10.144;2023-04-06T04:28:05;101787.69;;;4.65;67.09
75886;BME280;64561;44.018;10.144;2023-04-06T04:30:33;101779.72;;;4.58;65.87
75886;BME280;64561;44.018;10.144;2023-04-06T04:33:00;101793.94;;;4.56;64.99
75886;BME280;64561;44.018;10.144;2023-04-06T04:35:27;101796.88;;;4.49;64.96
75886;BME280;64561;44.018;10.144;2023-04-06T04:37:55;101791.56;;;4.33;65.18
75886;BME280;64561;44.018;10.144;2023-04-06T04:40:22;101791.78;;;4.23;66.76
75886;BME280;64561;44.018;10.144;2023-04-06T04:42:54;101789.16;;;4.21;66.24
75886;BME280;64561;44.018;10.144;2023-04-06T04:45:29;101789.16;;;4.21;67.74
75886;BME280;64561;44.018;10.144;2023-04-06T04:48:00;101796.25;;;4.27;66.63
75886;BME280;64561;44.018;10.144;2023-04-06T04:50:35;101787.44;;;4.08;66.37
75886;BME280;64561;44.018;10.144;2023-04-06T04:53:02;101785.44;;;4.16;65.74
75886;BME280;64561;44.018;10.144;2023-04-06T04:55:32;101783.50;;;4.25;65.74
75886;BME280;64561;44.018;10.144;2023-04-06T04:58:01;101794.69;;;4.42;66.33
75886;BME280;64561;44.018;10.144;2023-04-06T05:00:44;101792.16;;;4.42;66.26
75886;BME280;64561;44.018;10.144;2023-04-06T05:03:25;101797.75;;;4.50;67.75
75886;BME280;64561;44.018;10.144;2023-04-06T05:06:05;101796.84;;;4.36;66.08
75886;BME280;64561;44.018;10.144;2023-04-06T05:08:35;101795.00;;;4.33;66.08
75886;BME280;64561;44.018;10.144;2023-04-06T05:11:02;101800.63;;;4.16;67.18
75886;BME280;64561;44.018;10.144;2023-04-06T05:13:33;101800.34;;;4.25;67.08
75886;BME280;64561;44.018;10.144;2023-04-06T05:16:06;101798.03;;;4.41;67.78
75886;BME280;64561;44.018;10.144;2023-04-06T05:18:34;101800.75;;;4.44;68.13
75886;BME280;64561;44.018;10.144;2023-04-06T05:21:02;101803.75;;;4.39;66.02
75886;BME280;64561;44.018;10.144;2023-04-06T05:23:38;101804.75;;;4.41;65.81
75886;BME280;64561;44.018;10.144;2023-04-06T05:26:05;101803.84;;;4.27;66.31
75886;BME280;64561;44.018;10.144;2023-04-06T05:28:36;101798.69;;;4.25;67.86
75886;BME280;64561;44.018;10.144;2023-04-06T05:31:04;101811.63;;;4.30;68.08
75886;BME280;64561;44.018;10.144;2023-04-06T05:33:39;101812.25;;;4.39;68.23
75886;BME280;64561;44.018;10.144;2023-04-06T05:36:11;101823.28;;;4.53;69.00
75886;BME280;64561;44.018;10.144;2023-04-06T05:38:43;101820.47;;;4.48;68.14
75886;BME280;64561;44.018;10.144;2023-04-06T05:41:49;101835.06;;;4.66;69.16
75886;BME280;64561;44.018;10.144;2023-04-06T05:44:24;101833.69;;;4.84;67.88
75886;BME280;64561;44.018;10.144;2023-04-06T05:47:00;101839.75;;;4.59;66.97
75886;BME280;64561;44.018;10.144;2023-04-06T05:49:27;101846.19;;;4.68;68.84
75886;BME280;64561;44.018;10.144;2023-04-06T05:51:55;101854.66;;;4.55;67.92
75886;BME280;64561;44.018;10.144;2023-04-06T05:54:22;101851.84;;;4.64;68.40
75886;BME280;64561;44.018;10.144;2023-04-06T05:56:51;101848.06;;;4.70;68.92
75886;BME280;64561;44.018;10.144;2023-04-06T05:59:17;101850.47;;;4.69;69.12
75886;BME280;64561;44.018;10.144;2023-04-06T06:01:44;101854.31;;;4.75;69.04
75886;BME280;64561;44.018;10.144;2023-04-06T06:04:12;101852.91;;;4.80;69.26
75886;BME280;64561;44.018;10.144;2023-04-06T06:06:40;101861.31;;;4.93;68.91
75886;BME280;64561;44.018;10.144;2023-04-06T06:09:18;101862.88;;;5.04;69.49
75886;BME280;64561;44.018;10.144;2023-04-06T06:12:03;101858.09;;;5.09;68.01
75886;BME280;64561;44.018;10.144;2023-04-06T06:14:30;101864.13;;;5.24;68.51
75886;BME280;64561;44.018;10.144;2023-04-06T06:16:57;101852.19;;;5.36;67.66
75886;BME280;64561;44.018;10.144;2023-04-06T06:19:24;101854.13;;;5.40;67.32
75886;BME280;64561;44.018;10.144;2023-04-06T06:21:54;101858.38;;;5.55;67.76
75886;BME280;64561;44.018;10.144;2023-04-06T06:24:22;101854.84;;;5.66;67.47
75886;BME280;64561;44.018;10.144;2023-04-06T06:26:50;101859.69;;;5.76;67.53
75886;BME280;64561;44.018;10.144;2023-04-06T06:29:19;101861.09;;;5.86;67.32
75886;BME280;64561;44.018;10.144;2023-04-06T06:31:46;101860.00;;;5.95;67.19
75886;BME280;64561;44.018;10.144;2023-04-06T06:34:13;101865.03;;;6.09;67.14
75886;BME280;64561;44.018;10.144;2023-04-06T06:36:41;101853.84;;;6.20;67.00
75886;BME280;64561;44.018;10.144;2023-04-06T06:39:12;101850.97;;;6.29;61.21
75886;BME280;64561;44.018;10.144;2023-04-06T06:41:39;101853.59;;;6.45;60.59
75886;BME280;64561;44.018;10.144;2023-04-06T06:44:07;101854.97;;;6.55;59.53
75886;BME280;64561;44.018;10.144;2023-04-06T06:46:34;101834.81;;;6.58;55.28
75886;BME280;64561;44.018;10.144;2023-04-06T06:49:01;101859.16;;;6.84;53.73
75886;BME280;64561;44.018;10.144;2023-04-06T06:51:29;101862.06;;;6.90;54.88
75886;BME280;64561;44.018;10.144;2023-04-06T06:53:56;101860.81;;;6.98;56.85
75886;BME280;64561;44.018;10.144;2023-04-06T06:56:23;101864.56;;;7.05;54.60
75886;BME280;64561;44.018;10.144;2023-04-06T06:58:51;101872.72;;;7.14;53.79
75886;BME280;64561;44.018;10.144;2023-04-06T07:01:19;101868.91;;;7.22;53.22
75886;BME280;64561;44.018;10.144;2023-04-06T07:03:47;101872.72;;;7.30;54.33
75886;BME280;64561;44.018;10.144;2023-04-06T07:06:14;101865.44;;;7.37;53.91
75886;BME280;64561;44.018;10.144;2023-04-06T07:08:41;101867.53;;;7.44;52.32
75886;BME280;64561;44.018;10.144;2023-04-06T07:11:07;101864.50;;;7.51;52.92
75886;BME280;64561;44.018;10.144;2023-04-06T07:13:34;101868.56;;;7.64;52.89
75886;BME280;64561;44.018;10.144;2023-04-06T07:16:01;101866.34;;;7.86;49.14
75886;BME280;64561;44.018;10.144;2023-04-06T07:18:28;101873.66;;;7.96;47.74
75886;BME280;64561;44.018;10.144;2023-04-06T07:20:55;101868.88;;;8.02;49.48
75886;BME280;64561;44.018;10.144;2023-04-06T07:23:22;101867.19;;;8.03;50.45
75886;BME280;64561;44.018;10.144;2023-04-06T07:25:49;101875.16;;;8.09;50.93
75886;BME280;64561;44.018;10.144;2023-04-06T07:28:18;101874.53;;;8.13;49.54
75886;BME280;64561;44.018;10.144;2023-04-06T07:30:46;101873.97;;;8.19;49.60
75886;BME280;64561;44.018;10.144;2023-04-06T07:33:14;101882.69;;;8.24;50.54
75886;BME280;64561;44.018;10.144;2023-04-06T07:35:41;101890.75;;;8.32;49.36
75886;BME280;64561;44.018;10.144;2023-04-06T07:38:09;101896.97;;;8.37;47.44
75886;BME280;64561;44.018;10.144;2023-04-06T07:40:36;101890.75;;;8.48;48.98
75886;BME280;64561;44.018;10.144;2023-04-06T07:43:03;101889.59;;;8.59;49.12
75886;BME280;64561;44.018;10.144;2023-04-06T07:45:30;101891.72;;;8.68;51.31
75886;BME280;64561;44.018;10.144;2023-04-06T07:48:01;101892.84;;;8.73;50.76
75886;BME280;64561;44.018;10.144;2023-04-06T07:50:29;101894.81;;;8.97;48.97
75886;BME280;64561;44.018;10.144;2023-04-06T07:52:56;101889.34;;;8.89;49.31
75886;BME280;64561;44.018;10.144;2023-04-06T07:55:24;101895.03;;;8.83;46.07
75886;BME280;64561;44.018;10.144;2023-04-06T07:57:51;101893.13;;;8.79;48.23
75886;BME280;64561;44.018;10.144;2023-04-06T08:00:19;101890.44;;;8.94;51.00
75886;BME280;64561;44.018;10.144;2023-04-06T08:02:46;101892.75;;;9.07;50.18
75886;BME280;64561;44.018;10.144;2023-04-06T08:05:13;101892.56;;;9.21;50.60
75886;BME280;64561;44.018;10.144;2023-04-06T08:07:40;101886.25;;;9.32;48.31
75886;BME280;64561;44.018;10.144;2023-04-06T08:10:08;101889.03;;;9.36;48.16
75886;BME280;64561;44.018;10.144;2023-04-06T08:12:35;101887.75;;;9.46;48.89
75886;BME280;64561;44.018;10.144;2023-04-06T08:15:02;101886.16;;;9.68;48.00
75886;BME280;64561;44.018;10.144;2023-04-06T08:17:31;101887.38;;;9.76;48.02
75886;BME280;64561;44.018;10.144;2023-04-06T08:19:59;101881.41;;;9.75;44.28
75886;BME280;64561;44.018;10.144;2023-04-06T08:22:26;101884.69;;;9.73;47.46
75886;BME280;64561;44.018;10.144;2023-04-06T08:24:53;101890.25;;;9.83;47.66
75886;BME280;64561;44.018;10.144;2023-04-06T08:27:20;101883.38;;;9.81;47.15
75886;BME280;64561;44.018;10.144;2023-04-06T08:29:49;101883.00;;;9.73;47.25
75886;BME280;64561;44.018;10.144;2023-04-06T08:32:16;101884.84;;;9.76;46.08
75886;BME280;64561;44.018;10.144;2023-04-06T08:34:43;101884.56;;;9.70;47.24
75886;BME280;64561;44.018;10.144;2023-04-06T08:37:10;101877.56;;;9.85;46.05
75886;BME280;64561;44.018;10.144;2023-04-06T08:39:37;101877.97;;;9.94;47.71
75886;BME280;64561;44.018;10.144;2023-04-06T08:42:11;101876.09;;;9.90;46.84
75886;BME280;64561;44.018;10.144;2023-04-06T08:44:39;101883.38;;;10.21;47.66
75886;BME280;64561;44.018;10.144;2023-04-06T08:47:07;101884.69;;;10.31;45.69
75886;BME280;64561;44.018;10.144;2023-04-06T08:49:37;101890.38;;;10.45;44.27
75886;BME280;64561;44.018;10.144;2023-04-06T08:52:06;101897.81;;;10.39;44.65
75886;BME280;64561;44.018;10.144;2023-04-06T08:54:34;101885.00;;;10.39;44.22
75886;BME280;64561;44.018;10.144;2023-04-06T08:57:02;101900.75;;;10.48;46.40
75886;BME280;64561;44.018;10.144;2023-04-06T08:59:29;101906.41;;;10.62;45.84
75886;BME280;64561;44.018;10.144;2023-04-06T09:01:57;101904.69;;;10.61;48.18
75886;BME280;64561;44.018;10.144;2023-04-06T09:04:26;101908.19;;;10.63;48.14
75886;BME280;64561;44.018;10.144;2023-04-06T09:06:53;101902.00;;;10.58;45.39
75886;BME280;64561;44.018;10.144;2023-04-06T09:09:20;101910.16;;;10.49;46.43
75886;BME280;64561;44.018;10.144;2023-04-06T09:11:51;101902.81;;;10.57;40.89
75886;BME280;64561;44.018;10.144;2023-04-06T09:14:37;101902.81;;;10.57;42.63
75886;BME280;64561;44.018;10.144;2023-04-06T09:17:05;101910.63;;;10.60;44.59
75886;BME280;64561;44.018;10.144;2023-04-06T09:19:32;101903.38;;;10.70;43.02
75886;BME280;64561;44.018;10.144;2023-04-06T09:22:06;101902.38;;;10.67;41.45
75886;BME280;64561;44.018;10.144;2023-04-06T09:24:51;101913.84;;;10.76;38.77
75886;BME280;64561;44.018;10.144;2023-04-06T09:27:29;101909.19;;;10.87;37.39
75886;BME280;64561;44.018;10.144;2023-04-06T09:30:10;101907.84;;;10.97;38.69
75886;BME280;64561;44.018;10.144;2023-04-06T09:32:58;101921.75;;;11.04;38.32
75886;BME280;64561;44.018;10.144;2023-04-06T09:35:26;101914.97;;;11.04;37.91
75886;BME280;64561;44.018;10.144;2023-04-06T09:37:54;101917.34;;;10.99;37.19
75886;BME280;64561;44.018;10.144;2023-04-06T09:40:22;101910.78;;;10.85;37.78
75886;BME280;64561;44.018;10.144;2023-04-06T09:42:50;101909.50;;;10.74;36.51
75886;BME280;64561;44.018;10.144;2023-04-06T09:45:19;101904.88;;;10.65;40.10
75886;BME280;64561;44.018;10.144;2023-04-06T09:47:47;101904.81;;;10.64;41.97
75886;BME280;64561;44.018;10.144;2023-04-06T09:50:18;101899.81;;;10.67;39.23
75886;BME280;64561;44.018;10.144;2023-04-06T09:52:50;101898.44;;;10.75;41.45
75886;BME280;64561;44.018;10.144;2023-04-06T09:55:23;101894.50;;;10.83;40.16
75886;BME280;64561;44.018;10.144;2023-04-06T09:58:04;101899.03;;;11.11;40.31
75886;BME280;64561;44.018;10.144;2023-04-06T10:00:34;101901.53;;;11.32;37.85
75886;BME280;64561;44.018;10.144;2023-04-06T10:03:14;101902.03;;;11.46;37.63
75886;BME280;64561;44.018;10.144;2023-04-06T10:05:46;101900.66;;;11.54;36.79
75886;BME280;64561;44.018;10.144;2023-04-06T10:08:18;101897.19;;;11.52;34.33
75886;BME280;64561;44.018;10.144;2023-04-06T10:10:46;101895.31;;;11.48;35.17
75886;BME280;64561;44.018;10.144;2023-04-06T10:13:13;101899.66;;;11.51;35.01
75886;BME280;64561;44.018;10.144;2023-04-06T10:15:42;101895.41;;;11.51;36.81
75886;BME280;64561;44.018;10.144;2023-04-06T10:18:09;101895.94;;;11.65;37.56
75886;BME280;64561;44.018;10.144;2023-04-06T10:20:55;101890.97;;;11.70;37.26
75886;BME280;64561;44.018;10.144;2023-04-06T10:26:24;101886.34;;;11.83;35.79
75886;BME280;64561;44.018;10.144;2023-04-06T10:28:51;101896.41;;;11.79;38.24
75886;BME280;64561;44.018;10.144;2023-04-06T10:31:25;101885.06;;;11.95;36.98
75886;BME280;64561;44.018;10.144;2023-04-06T10:33:54;101895.38;;;11.96;35.31
75886;BME280;64561;44.018;10.144;2023-04-06T10:36:26;101897.56;;;11.85;37.49
75886;BME280;64561;44.018;10.144;2023-04-06T10:38:59;101896.78;;;11.88;38.87
75886;BME280;64561;44.018;10.144;2023-04-06T10:41:41;101893.47;;;11.90;37.69
75886;BME280;64561;44.018;10.144;2023-04-06T10:44:17;101899.47;;;11.91;36.09
75886;BME280;64561;44.018;10.144;2023-04-06T10:46:53;101905.16;;;11.84;39.44
75886;BME280;64561;44.018;10.144;2023-04-06T10:49:21;101891.19;;;11.98;41.41
75886;BME280;64561;44.018;10.144;2023-04-06T10:51:54;101897.22;;;12.00;37.43
75886;BME280;64561;44.018;10.144;2023-04-06T10:54:23;101895.00;;;11.85;41.86
75886;BME280;64561;44.018;10.144;2023-04-06T10:56:50;101887.97;;;12.04;37.70
75886;BME280;64561;44.018;10.144;2023-04-06T10:59:21;101892.47;;;12.11;38.79
75886;BME280;64561;44.018;10.144;2023-04-06T11:01:48;101894.09;;;12.09;40.78
75886;BME280;64561;44.018;10.144;2023-04-06T11:04:17;101893.72;;;12.22;41.05
75886;BME280;64561;44.018;10.144;2023-04-06T11:06:48;101891.53;;;12.09;40.69
75886;BME280;64561;44.018;10.144;2023-04-06T11:09:26;101887.97;;;12.04;38.04
75886;BME280;64561;44.018;10.144;2023-04-06T11:11:54;101890.66;;;11.84;39.62
75886;BME280;64561;44.018;10.144;2023-04-06T11:14:21;101884.13;;;11.93;39.46
75886;BME280;64561;44.018;10.144;2023-04-06T11:16:49;101876.88;;;12.05;39.29
75886;BME280;64561;44.018;10.144;2023-04-06T11:19:17;101879.13;;;12.21;38.34
75886;BME280;64561;44.018;10.144;2023-04-06T11:21:46;101881.50;;;12.15;42.64
75886;BME280;64561;44.018;10.144;2023-04-06T11:24:19;101873.91;;;12.18;37.79
75886;BME280;64561;44.018;10.144;2023-04-06T11:26:47;101867.63;;;12.34;37.88
75886;BME280;64561;44.018;10.144;2023-04-06T11:29:23;101864.38;;;12.40;38.85
75886;BME280;64561;44.018;10.144;2023-04-06T11:31:50;101860.34;;;12.48;38.30
75886;BME280;64561;44.018;10.144;2023-04-06T11:34:20;101866.53;;;12.53;39.79
75886;BME280;64561;44.018;10.144;2023-04-06T11:36:49;101848.94;;;12.65;38.45
75886;BME280;64561;44.018;10.144;2023-04-06T11:39:23;101851.75;;;12.73;36.60
75886;BME280;64561;44.018;10.144;2023-04-06T11:41:51;101847.63;;;12.78;38.53
75886;BME280;64561;44.018;10.144;2023-04-06T11:47:07;101838.44;;;12.85;37.66
75886;BME280;64561;44.018;10.144;2023-04-06T11:49:37;101844.66;;;12.93;37.59
75886;BME280;64561;44.018;10.144;2023-04-06T11:52:15;101842.28;;;12.99;37.02
75886;BME280;64561;44.018;10.144;2023-04-06T11:54:42;101832.78;;;12.96;37.31
75886;BME280;64561;44.018;10.144;2023-04-06T11:57:09;101832.97;;;12.75;37.21
75886;BME280;64561;44.018;10.144;2023-04-06T11:59:36;101837.53;;;12.57;38.72
75886;BME280;64561;44.018;10.144;2023-04-06T12:02:03;101831.13;;;12.70;36.85
75886;BME280;64561;44.018;10.144;2023-04-06T12:04:30;101829.75;;;12.81;36.37
75886;BME280;64561;44.018;10.144;2023-04-06T12:06:58;101825.81;;;12.92;37.53
75886;BME280;64561;44.018;10.144;2023-04-06T12:09:25;101823.47;;;13.00;35.30
75886;BME280;64561;44.018;10.144;2023-04-06T12:11:52;101814.78;;;12.96;35.43
75886;BME280;64561;44.018;10.144;2023-04-06T12:14:19;101817.41;;;12.98;34.79
75886;BME280;64561;44.018;10.144;2023-04-06T12:16:46;101814.69;;;12.93;36.00
75886;BME280;64561;44.018;10.144;2023-04-06T12:19:13;101802.50;;;12.86;33.70
75886;BME280;64561;44.018;10.144;2023-04-06T12:21:40;101811.13;;;12.88;33.50
75886;BME280;64561;44.018;10.144;2023-04-06T12:24:07;101801.16;;;12.99;33.03
75886;BME280;64561;44.018;10.144;2023-04-06T12:26:35;101807.06;;;12.95;34.97
75886;BME280;64561;44.018;10.144;2023-04-06T12:29:03;101809.63;;;12.95;35.49
75886;BME280;64561;44.018;10.144;2023-04-06T12:31:37;101812.66;;;13.10;38.56
75886;BME280;64561;44.018;10.144;2023-04-06T12:34:11;101800.03;;;13.18;35.05
75886;BME280;64561;44.018;10.144;2023-04-06T12:36:38;101800.03;;;13.18;35.73
75886;BME280;64561;44.018;10.144;2023-04-06T12:39:06;101804.19;;;13.14;35.52
75886;BME280;64561;44.018;10.144;2023-04-06T12:41:32;101805.59;;;13.32;34.27
75886;BME280;64561;44.018;10.144;2023-04-06T12:44:02;101815.03;;;13.33;31.72
75886;BME280;64561;44.018;10.144;2023-04-06T12:46:30;101813.44;;;13.36;33.25
75886;BME280;64561;44.018;10.144;2023-04-06T12:48:58;101813.28;;;13.32;31.33
75886;BME280;64561;44.018;10.144;2023-04-06T12:51:28;101814.63;;;13.20;35.65
75886;BME280;64561;44.018;10.144;2023-04-06T12:53:55;101810.41;;;13.21;34.25
75886;BME280;64561;44.018;10.144;2023-04-06T12:56:22;101802.94;;;13.29;35.30
75886;BME280;64561;44.018;10.144;2023-04-06T12:58:52;101807.38;;;13.34;38.29
75886;BME280;64561;44.018;10.144;2023-04-06T13:01:19;101801.72;;;13.46;37.15
75886;BME280;64561;44.018;10.144;2023-04-06T13:03:47;101794.75;;;13.42;35.53
75886;BME280;64561;44.018;10.144;2023-04-06T13:06:14;101792.22;;;13.15;36.60